Time;durP1;ratioP1;P1;durP2;ratioP2;P2;SDS_P1;SDS_P2;PMS_P1;PMS_P2;Temp;Humidity;BMP_temperature;BMP_pressure;BME280_temperature;BME280_humidity;BME280_pressure;Samples;Min_cycle;Max_cycle;Signal;HPM_P1;HPM_P2
2022/02/01 00:02:32;;;;;;;25.42;12.45;;;;;;;0.40;80.75;91920.94;5032347;28;20057;-79
2022/02/01 00:05:07;;;;;;;24.05;12.35;;;;;;;0.57;80.80;91951.03;5032149;28;20493;-79
2022/02/01 00:07:41;;;;;;;39.47;17.10;;;;;;;0.53;80.22;91953.13;5032191;28;20505;-79
2022/02/01 00:10:15;;;;;;;36.92;15.02;;;;;;;0.30;80.42;91930.56;5031901;28;20053;-78
2022/02/01 00:12:52;;;;;;;28.02;13.18;;;;;;;0.53;81.49;91963.25;5032103;28;20054;-79
2022/02/01 00:18:27;;;;;;;15.68;6.93;;;;;;;0.44;80.41;91959.25;5031512;28;20045;-78
2022/02/01 00:34:59;;;;;;;11.00;3.55;;;;;;;0.33;75.06;91951.19;5030533;28;20056;-78
2022/02/01 00:37:29;;;;;;;9.93;2.85;;;;;;;0.34;77.47;91935.09;5016264;28;20045;-78
2022/02/01 00:39:58;;;;;;;7.57;3.10;;;;;;;0.42;76.09;91939.25;5031690;28;20049;-78
2022/02/01 00:42:25;;;;;;;9.20;3.53;;;;;;;0.46;75.73;91942.97;5031053;28;20045;-78
2022/02/01 00:44:52;;;;;;;11.52;4.25;;;;;;;0.48;75.23;91940.25;5031485;28;20053;-78
2022/02/01 00:47:19;;;;;;;11.57;3.95;;;;;;;0.55;77.08;91935.28;5031189;28;20049;-78
2022/02/01 00:49:48;;;;;;;9.50;3.92;;;;;;;0.27;75.73;91886.22;5030977;28;20064;-78
2022/02/01 00:52:15;;;;;;;9.77;4.55;;;;;;;0.45;76.22;91910.28;5031418;28;20049;-78
2022/02/01 00:54:42;;;;;;;12.32;4.63;;;;;;;0.57;75.34;91923.25;5031356;28;20150;-78
2022/02/01 00:57:12;;;;;;;12.23;4.80;;;;;;;0.51;75.76;91917.94;5031091;28;20049;-78
2022/02/01 00:59:38;;;;;;;11.25;4.30;;;;;;;0.59;75.08;91916.25;5031295;28;20050;-78
2022/02/01 01:02:05;;;;;;;10.45;4.20;;;;;;;0.64;75.10;91917.28;5031128;28;20127;-78
2022/02/01 01:04:32;;;;;;;10.75;4.28;;;;;;;0.64;74.27;91921.53;5029832;28;20049;-78
2022/02/01 01:07:01;;;;;;;9.95;3.70;;;;;;;0.62;75.41;91915.91;5030950;28;20053;-78
2022/02/01 01:09:27;;;;;;;8.23;4.32;;;;;;;0.56;74.64;91904.78;5030868;28;20057;-77
2022/02/01 01:11:57;;;;;;;8.43;3.30;;;;;;;0.60;74.46;91903.44;5030731;28;20053;-78
2022/02/01 01:44:41;;;;;;;6.60;2.95;;;;;;;0.69;73.60;91862.91;5030202;28;20057;-78
2022/02/01 01:53:12;;;;;;;7.18;3.15;;;;;;;0.71;73.08;91854.16;5030060;28;20067;-77
2022/02/01 01:55:42;;;;;;;8.63;3.08;;;;;;;0.60;72.26;91836.97;5030192;28;20103;-77
2022/02/01 01:58:09;;;;;;;4.68;2.40;;;;;;;0.68;71.46;91852.00;5030013;28;20053;-77
2022/02/01 02:00:56;;;;;;;6.53;2.95;;;;;;;0.58;72.03;91838.88;5030078;28;20053;-78
2022/02/01 02:03:23;;;;;;;5.75;3.08;;;;;;;0.65;71.47;91840.50;5029962;28;20145;-78
2022/02/01 02:05:50;;;;;;;8.15;3.45;;;;;;;0.62;71.49;91840.09;5029655;28;20053;-78
2022/02/01 02:08:17;;;;;;;5.43;2.90;;;;;;;0.57;70.10;91847.44;5029700;28;20505;-78
2022/02/01 02:10:54;;;;;;;5.38;2.15;;;;;;;0.59;69.41;91848.81;5029828;28;20052;-78
2022/02/01 02:16:06;;;;;;;6.53;2.00;;;;;;;0.46;68.17;91826.75;5029358;28;20539;-79
2022/02/01 02:18:35;;;;;;;6.38;2.78;;;;;;;0.62;68.92;91835.81;5029403;28;20465;-79
2022/02/01 02:21:04;;;;;;;6.53;2.42;;;;;;;0.66;69.09;91829.41;5029897;28;20051;-79
2022/02/01 02:23:31;;;;;;;8.95;2.53;;;;;;;0.53;67.41;91804.84;5029354;28;20517;-80
2022/02/01 02:26:01;;;;;;;8.02;2.33;;;;;;;0.70;68.11;91822.28;5029752;28;20049;-79
2022/02/01 02:28:27;;;;;;;5.95;2.17;;;;;;;0.65;67.41;91810.16;5029853;28;20412;-79
2022/02/01 02:30:54;;;;;;;6.40;2.50;;;;;;;0.76;67.68;91815.69;5029480;28;20497;-78
2022/02/01 02:33:21;;;;;;;6.20;2.60;;;;;;;0.78;67.70;91811.22;5029563;28;20041;-78
2022/02/01 02:35:57;;;;;;;6.40;2.47;;;;;;;0.82;67.99;91809.13;5029664;28;20064;-78
2022/02/01 02:38:37;;;;;;;6.88;2.65;;;;;;;0.82;68.09;91804.84;5029519;28;20057;-78
2022/02/01 02:46:30;;;;;;;7.40;3.25;;;;;;;0.91;68.23;91801.22;5029286;28;20053;-78
2022/02/01 02:48:57;;;;;;;7.55;3.10;;;;;;;0.94;69.53;91789.94;5029042;28;20065;-78
2022/02/01 02:51:26;;;;;;;8.00;3.20;;;;;;;0.96;69.70;91787.25;5028984;28;20485;-78
2022/02/01 02:53:54;;;;;;;10.68;4.60;;;;;;;1.02;68.15;91804.19;5029161;28;20049;-78
2022/02/01 02:56:21;;;;;;;11.05;4.63;;;;;;;1.02;68.82;91792.31;5029219;28;20045;-78
2022/02/01 02:58:51;;;;;;;7.93;3.92;;;;;;;1.10;69.12;91795.69;5029123;28;20045;-78
2022/02/01 03:01:18;;;;;;;7.25;3.80;;;;;;;1.08;69.53;91800.91;5029124;28;20046;-78
2022/02/01 03:03:45;;;;;;;8.80;3.92;;;;;;;1.09;69.52;91794.88;5028966;28;20121;-78
2022/02/01 03:06:11;;;;;;;8.40;3.72;;;;;;;1.06;69.49;91783.38;5029407;28;20053;-78
2022/02/01 03:08:39;;;;;;;6.72;2.63;;;;;;;0.95;66.17;91770.47;5029280;28;20046;-78
2022/02/01 03:11:11;;;;;;;6.43;3.40;;;;;;;1.08;65.42;91800.91;5029313;28;20042;-78
2022/02/01 03:13:41;;;;;;;7.05;2.85;;;;;;;0.91;64.31;91798.69;5028883;28;20049;-78
2022/02/01 03:16:13;;;;;;;6.72;3.53;;;;;;;0.89;65.20;91797.31;5028978;28;20050;-78
2022/02/01 03:21:24;;;;;;;9.55;4.75;;;;;;;0.74;65.34;91775.44;5028902;28;20515;-78
2022/02/01 03:23:51;;;;;;;8.52;4.10;;;;;;;0.73;64.42;91763.75;5028894;28;20052;-78
2022/02/01 03:26:19;;;;;;;5.57;2.55;;;;;;;0.79;65.60;91768.06;5029590;28;20854;-78
2022/02/01 03:28:46;;;;;;;6.78;2.80;;;;;;;0.79;66.49;91757.19;5032733;28;20060;-77
2022/02/01 03:31:13;;;;;;;7.07;2.55;;;;;;;0.87;63.75;91766.34;5032887;28;20041;-77
2022/02/01 03:33:39;;;;;;;8.68;3.63;;;;;;;0.91;63.42;91765.03;5032528;28;20563;-78
2022/02/01 03:36:07;;;;;;;6.72;3.35;;;;;;;0.98;62.75;91757.47;5032491;28;20432;-79
2022/02/01 03:38:34;;;;;;;7.03;3.17;;;;;;;0.91;62.54;91763.28;5032479;28;20054;-78
2022/02/01 03:41:01;;;;;;;10.82;4.32;;;;;;;0.93;62.97;91755.53;5032600;28;20053;-78
2022/02/01 03:43:29;;;;;;;9.45;4.05;;;;;;;0.97;63.40;91761.75;5032671;28;20417;-79
2022/02/01 03:45:57;;;;;;;7.28;2.97;;;;;;;0.95;63.58;91756.09;5032413;28;20555;-78
2022/02/01 03:48:24;;;;;;;8.55;2.92;;;;;;;0.89;65.15;91744.22;5032426;28;20053;-78
2022/02/01 03:50:50;;;;;;;10.02;4.60;;;;;;;0.95;62.41;91761.16;5032085;28;20056;-78
2022/02/01 03:53:17;;;;;;;8.35;3.88;;;;;;;0.95;61.53;91763.69;5032149;28;20041;-78
2022/02/01 03:55:44;;;;;;;5.45;1.80;;;;;;;0.85;59.87;91769.09;5032633;28;20409;-79
2022/02/01 03:58:11;;;;;;;5.43;2.40;;;;;;;0.90;60.87;91759.19;5032490;28;20103;-79
2022/02/01 04:00:39;;;;;;;8.55;3.35;;;;;;;0.96;67.59;91761.94;5032413;28;20602;-80
2022/02/01 04:03:06;;;;;;;8.48;4.00;;;;;;;0.93;65.59;91753.75;5031937;28;20049;-78
2022/02/01 04:05:34;;;;;;;11.23;5.55;;;;;;;0.79;67.50;91735.22;5032054;28;20053;-77
2022/02/01 04:08:01;;;;;;;7.22;3.17;;;;;;;0.78;66.29;91742.97;5032006;28;20136;-78
2022/02/01 04:10:29;;;;;;;7.78;4.47;;;;;;;0.76;67.93;91755.81;5031879;28;20651;-78
2022/02/01 04:12:57;;;;;;;10.73;4.75;;;;;;;0.73;68.72;91756.19;5031827;28;20666;-77
2022/02/01 04:15:26;;;;;;;9.35;4.70;;;;;;;0.68;69.52;91732.44;5031710;28;20088;-78
2022/02/01 04:17:55;;;;;;;11.18;5.10;;;;;;;0.67;70.86;91739.22;5032147;28;20045;-78
2022/02/01 04:20:22;;;;;;;10.90;4.72;;;;;;;0.59;71.36;91744.41;5031697;28;20089;-77
2022/02/01 04:22:49;;;;;;;9.20;4.95;;;;;;;0.56;70.86;91738.00;5031629;28;20512;-78
2022/02/01 04:25:16;;;;;;;10.13;3.47;;;;;;;0.28;70.73;91710.22;5031923;28;20054;-78
2022/02/01 04:27:43;;;;;;;8.82;4.57;;;;;;;0.25;71.93;91731.59;5031435;28;20061;-78
2022/02/01 04:30:12;;;;;;;7.38;4.18;;;;;;;0.22;72.82;91732.72;5031803;28;20053;-78
2022/02/01 04:32:41;;;;;;;10.20;5.15;;;;;;;-0.04;74.07;91718.94;5031565;28;20052;-78
2022/02/01 04:35:12;;;;;;;10.95;4.53;;;;;;;-0.02;74.59;91714.50;5031752;28;20390;-77
2022/02/01 04:37:39;;;;;;;10.35;5.35;;;;;;;-0.05;74.77;91709.78;5031494;28;20049;-77
2022/02/01 04:40:08;;;;;;;9.73;5.43;;;;;;;-0.19;75.19;91715.72;5031249;28;20056;-77
2022/02/01 04:42:37;;;;;;;14.05;6.25;;;;;;;-0.28;76.43;91718.34;5031549;28;20045;-77
2022/02/01 04:45:05;;;;;;;15.27;6.57;;;;;;;-0.27;77.33;91727.47;5031289;28;20049;-77
2022/02/01 04:47:33;;;;;;;18.17;6.60;;;;;;;-0.31;77.51;91730.53;5031319;28;20049;-77
2022/02/01 04:50:01;;;;;;;15.30;6.78;;;;;;;-0.38;77.54;91734.75;5031496;28;20054;-77
2022/02/01 04:52:29;;;;;;;32.53;13.32;;;;;;;-0.54;77.20;91724.69;5031087;28;20056;-77
2022/02/01 04:54:57;;;;;;;63.75;24.63;;;;;;;-0.52;78.52;91738.88;5031120;28;20144;-78
2022/02/01 04:57:24;;;;;;;43.63;18.67;;;;;;;-0.39;78.73;91748.31;5027787;28;20045;-78
2022/02/01 04:59:52;;;;;;;18.67;8.93;;;;;;;-0.34;77.04;91758.66;5028878;28;20056;-79
2022/02/01 05:02:19;;;;;;;38.90;16.80;;;;;;;-0.32;77.36;91754.97;5030973;28;20045;-78
2022/02/01 05:04:46;;;;;;;33.92;14.90;;;;;;;-0.15;79.76;91760.59;5030627;28;20045;-78
2022/02/01 05:07:13;;;;;;;48.97;22.05;;;;;;;-0.17;80.70;91737.28;5031023;28;20123;-78
2022/02/01 05:09:41;;;;;;;38.78;18.70;;;;;;;0.10;79.34;91754.41;5030560;28;20046;-78
2022/02/01 05:12:10;;;;;;;29.58;14.15;;;;;;;0.19;78.13;91765.91;5030720;28;20052;-78
2022/02/01 05:14:36;;;;;;;27.60;13.90;;;;;;;0.33;79.55;91768.56;5033518;28;20452;-78
2022/02/01 05:17:04;;;;;;;25.08;12.02;;;;;;;0.33;79.92;91771.84;5049969;28;20087;-77
2022/02/01 05:19:47;;;;;;;18.98;9.57;;;;;;;0.36;76.40;91774.00;5049855;28;20072;-78
2022/02/01 05:22:17;;;;;;;21.08;10.45;;;;;;;0.38;76.50;91769.56;5050560;28;20056;-77
2022/02/01 05:24:48;;;;;;;20.00;11.25;;;;;;;0.26;76.15;91763.44;5050087;28;20493;-77
2022/02/01 05:27:15;;;;;;;25.85;13.10;;;;;;;0.18;75.38;91763.59;5050635;28;20076;-78
2022/02/01 05:29:43;;;;;;;21.15;11.88;;;;;;;0.28;75.86;91781.75;5044601;28;20064;-77
2022/02/01 05:32:23;;;;;;;17.70;7.18;;;;;;;0.18;74.17;91794.66;5030232;28;20128;-77
2022/02/01 05:34:51;;;;;;;12.20;6.40;;;;;;;0.18;76.46;91802.22;5030321;28;20643;-77
2022/02/01 05:37:17;;;;;;;15.30;7.57;;;;;;;0.13;76.72;91796.94;5030380;28;20072;-78
2022/02/01 05:39:46;;;;;;;16.30;9.15;;;;;;;0.06;78.42;91796.09;5029931;28;20107;-78
2022/02/01 05:42:17;;;;;;;16.50;7.70;;;;;;;0.02;78.03;91794.91;5030154;28;20092;-78
2022/02/01 05:44:44;;;;;;;16.80;8.80;;;;;;;-0.16;77.19;91780.97;5030148;28;20057;-78
2022/02/01 05:47:11;;;;;;;22.77;10.25;;;;;;;-0.09;78.13;91804.50;5030256;28;20067;-78
2022/02/01 05:49:37;;;;;;;27.75;14.63;;;;;;;-0.07;78.92;91822.00;5029497;28;20045;-78
2022/02/01 05:52:05;;;;;;;23.38;13.10;;;;;;;-0.06;80.38;91819.31;5030112;28;20049;-78
2022/02/01 05:54:32;;;;;;;17.17;9.52;;;;;;;0.03;80.18;91840.16;5030261;28;20049;-78
2022/02/01 05:57:00;;;;;;;23.38;13.02;;;;;;;0.04;79.18;91851.81;5030169;28;20068;-78
2022/02/01 05:59:27;;;;;;;23.67;12.73;;;;;;;0.00;79.64;91845.59;5029905;28;20052;-78
2022/02/01 06:01:54;;;;;;;22.75;12.65;;;;;;;0.02;81.21;91848.72;5029829;28;20104;-78
2022/02/01 06:04:21;;;;;;;25.33;13.20;;;;;;;0.01;81.21;91848.88;5030228;28;20476;-78
2022/02/01 06:06:48;;;;;;;35.88;18.88;;;;;;;0.02;81.59;91852.97;5030083;28;20051;-78
2022/02/01 06:09:15;;;;;;;61.33;27.85;;;;;;;0.02;80.48;91846.19;5029991;28;20057;-78
2022/02/01 06:11:42;;;;;;;45.50;23.55;;;;;;;-0.02;80.64;91847.50;5029847;28;20045;-78
2022/02/01 06:14:10;;;;;;;35.78;18.75;;;;;;;-0.09;81.02;91859.28;5029849;28;20053;-78
2022/02/01 06:16:37;;;;;;;34.95;17.90;;;;;;;-0.12;81.93;91860.41;5029823;28;20049;-79
2022/02/01 06:19:04;;;;;;;29.13;15.48;;;;;;;-0.28;83.14;91851.28;5029618;28;20053;-78
2022/02/01 06:21:31;;;;;;;27.42;15.02;;;;;;;-0.21;83.49;91874.09;5029481;28;20517;-78
2022/02/01 06:23:57;;;;;;;38.10;19.20;;;;;;;-0.43;84.10;91874.81;5029859;28;20053;-78
2022/02/01 06:26:24;;;;;;;34.38;18.83;;;;;;;-0.64;85.38;91873.03;5029372;28;20497;-78
2022/02/01 06:28:51;;;;;;;30.45;18.05;;;;;;;-0.61;85.70;91879.44;5029407;28;20489;-78
2022/02/01 06:31:19;;;;;;;38.85;19.08;;;;;;;-0.75;86.21;91873.44;5029338;28;20057;-78
2022/02/01 06:33:46;;;;;;;28.17;15.55;;;;;;;-0.60;85.12;91889.34;5029502;28;20096;-78
2022/02/01 06:36:13;;;;;;;25.92;12.40;;;;;;;-0.70;84.35;91866.91;5029753;28;20068;-78
2022/02/01 06:38:40;;;;;;;32.33;14.95;;;;;;;-0.46;85.33;91879.44;5029660;28;20056;-78
2022/02/01 06:41:06;;;;;;;29.98;14.45;;;;;;;-0.37;84.65;91882.66;5029193;28;20049;-79
2022/02/01 06:43:33;;;;;;;33.88;16.70;;;;;;;-0.22;85.74;91880.88;5029288;28;20045;-78
2022/02/01 06:46:00;;;;;;;30.40;16.55;;;;;;;-0.12;84.07;91888.19;5029344;28;20103;-79
2022/02/01 06:48:28;;;;;;;32.28;17.27;;;;;;;0.01;85.06;91902.69;5029042;28;20042;-78
2022/02/01 06:50:55;;;;;;;30.15;18.85;;;;;;;-0.03;86.26;91878.75;5029109;28;20069;-79
2022/02/01 06:53:23;;;;;;;33.50;19.58;;;;;;;0.25;85.92;91904.09;5029187;28;20856;-79
2022/02/01 06:56:05;;;;;;;31.25;19.10;;;;;;;0.19;85.32;91884.59;5029212;28;20111;-78
2022/02/01 06:58:32;;;;;;;36.25;19.10;;;;;;;0.43;85.37;91902.13;5029244;28;20042;-78
2022/02/01 07:00:59;;;;;;;38.67;19.45;;;;;;;0.37;84.24;91891.78;5029372;28;20049;-78
2022/02/01 07:03:26;;;;;;;36.00;20.27;;;;;;;0.34;83.03;91924.19;5033340;28;20041;-78
2022/02/01 07:05:54;;;;;;;33.95;18.33;;;;;;;0.28;81.43;91924.91;5033489;28;20053;-78
2022/02/01 07:08:21;;;;;;;36.30;17.85;;;;;;;0.24;82.37;91925.25;5033525;28;20041;-79
2022/02/01 07:10:48;;;;;;;59.97;29.33;;;;;;;0.37;83.38;91926.38;5032879;28;20046;-79
2022/02/01 07:13:16;;;;;;;73.13;37.60;;;;;;;0.47;84.62;91933.66;5032972;28;20052;-78
2022/02/01 07:15:42;;;;;;;79.18;40.00;;;;;;;0.55;85.28;91933.53;5033335;28;20057;-78
2022/02/01 07:18:09;;;;;;;76.68;39.50;;;;;;;0.64;85.81;91934.97;5030264;28;20489;-79
2022/02/01 07:20:36;;;;;;;81.60;39.08;;;;;;;0.74;85.07;91941.47;5031461;28;20049;-79
2022/02/01 07:23:10;;;;;;;80.82;38.22;;;;;;;0.82;84.77;91946.41;5031960;28;20064;-78
2022/02/01 07:25:45;;;;;;;71.97;33.80;;;;;;;0.84;83.81;91941.97;5033057;28;20088;-78
2022/02/01 07:28:13;;;;;;;63.80;33.40;;;;;;;0.99;84.68;91953.72;5032659;28;20103;-78
2022/02/01 07:30:40;;;;;;;70.68;34.97;;;;;;;0.95;84.40;91944.94;5032898;28;20491;-79
2022/02/01 07:33:07;;;;;;;66.20;34.33;;;;;;;1.11;83.88;91954.03;5032766;28;20041;-78
2022/02/01 07:35:37;;;;;;;94.60;50.50;;;;;;;1.18;83.69;91952.31;5032791;28;20046;-79
2022/02/01 07:38:06;;;;;;;101.55;54.45;;;;;;;1.23;82.99;91944.97;5032787;28;20076;-78
2022/02/01 07:40:33;;;;;;;93.65;47.03;;;;;;;1.28;83.76;91947.72;5032734;28;20046;-78
2022/02/01 07:43:00;;;;;;;70.15;38.47;;;;;;;1.29;83.41;91944.22;5032482;28;20057;-78
2022/02/01 07:45:29;;;;;;;68.53;36.78;;;;;;;1.38;83.03;91955.00;5032589;28;20046;-78
2022/02/01 07:47:57;;;;;;;63.63;32.95;;;;;;;1.44;81.34;91959.31;5032571;28;20049;-78
2022/02/01 07:50:24;;;;;;;66.65;32.38;;;;;;;1.41;82.17;91948.78;5032272;28;20529;-78
2022/02/01 07:52:51;;;;;;;62.72;29.02;;;;;;;1.53;81.83;91962.47;5033013;28;20412;-78
2022/02/01 07:55:20;;;;;;;64.38;31.55;;;;;;;1.59;78.98;91964.25;5032101;28;20056;-78
2022/02/01 07:57:47;;;;;;;66.15;30.23;;;;;;;1.64;79.03;91955.34;5032269;28;20049;-77
2022/02/01 08:00:14;;;;;;;55.95;28.15;;;;;;;1.49;77.69;91940.28;5032026;28;20052;-78
2022/02/01 08:02:41;;;;;;;57.17;29.88;;;;;;;1.59;77.02;91956.66;5032341;28;20115;-79
2022/02/01 08:05:09;;;;;;;60.45;30.77;;;;;;;1.49;75.90;91933.47;5032208;28;20107;-78
2022/02/01 08:07:36;;;;;;;70.50;34.88;;;;;;;1.57;75.15;91965.44;5032130;28;20413;-77
2022/02/01 08:10:04;;;;;;;51.67;27.42;;;;;;;1.30;75.79;91958.44;5031681;28;20880;-78
2022/02/01 08:18:08;;;;;;;140.68;61.65;;;;;;;1.20;80.98;91955.44;5031668;28;20056;-78
2022/02/01 08:20:44;;;;;;;144.88;61.80;;;;;;;1.29;76.93;91967.00;5031977;28;20072;-78
2022/02/01 08:23:11;;;;;;;;;;;;;;;1.27;77.43;91966.41;5031966;28;20046;-79
2022/02/01 08:25:38;;;;;;;159.45;60.67;;;;;;;1.23;79.28;91964.41;5031869;28;19975;-80
2022/02/01 08:28:06;;;;;;;74.30;36.35;;;;;;;1.01;80.82;91949.25;5031474;28;20091;-79
2022/02/01 08:30:34;;;;;;;69.22;35.95;;;;;;;1.00;82.82;91968.72;5031678;28;20464;-79
2022/02/01 08:33:02;;;;;;;68.57;31.25;;;;;;;0.75;84.72;91926.13;5031762;28;20410;-79
2022/02/01 08:35:29;;;;;;;66.43;24.60;;;;;;;0.99;83.21;91962.13;5031878;28;20053;-79
2022/02/01 08:37:55;;;;;;;71.93;26.20;;;;;;;1.01;82.86;91960.16;5031919;28;20088;-79
2022/02/01 08:40:23;;;;;;;69.97;26.60;;;;;;;0.78;82.39;91933.34;5031502;28;20045;-79
2022/02/01 08:42:51;;;;;;;73.68;27.35;;;;;;;0.88;82.80;91935.56;5031644;28;20049;-79
2022/02/01 08:45:23;;;;;;;81.65;31.02;;;;;;;1.14;83.19;91954.44;5031076;28;20046;-79
2022/02/01 08:47:50;;;;;;;85.97;31.27;;;;;;;1.01;81.27;91956.84;5031143;28;20061;-79
2022/02/01 08:50:21;;;;;;;89.82;26.67;;;;;;;0.87;82.54;91953.44;5031337;28;20053;-79
2022/02/01 08:52:49;;;;;;;54.53;18.75;;;;;;;0.78;83.00;91953.56;5030979;28;20520;-79
2022/02/01 08:55:33;;;;;;;60.97;20.85;;;;;;;0.77;85.29;91959.59;5030997;28;20073;-80
2022/02/01 08:58:01;;;;;;;59.55;16.52;;;;;;;0.62;91.43;91948.75;5031230;28;20046;-80
2022/02/01 09:00:31;;;;;;;76.97;18.67;;;;;;;0.48;94.30;91920.84;5031262;28;20049;-80
2022/02/01 09:03:01;;;;;;;65.05;16.90;;;;;;;0.56;96.72;91932.56;5031289;28;20049;-79
2022/02/01 09:05:28;;;;;;;88.32;21.38;;;;;;;0.63;94.19;91922.50;5030716;28;20084;-79
2022/02/01 09:07:55;;;;;;;51.03;18.65;;;;;;;0.69;92.38;91921.78;5030848;28;20049;-79
2022/02/01 09:10:22;;;;;;;65.95;23.35;;;;;;;0.69;89.16;91923.53;5030894;28;20399;-79
2022/02/01 09:12:49;;;;;;;52.28;17.13;;;;;;;0.47;88.41;91910.91;5031142;28;20049;-79
2022/02/01 09:15:16;;;;;;;40.33;14.18;;;;;;;0.45;88.51;91931.28;5031112;28;20398;-79
2022/02/01 09:17:45;;;;;;;62.22;16.30;;;;;;;0.58;88.02;91934.91;5030602;28;20053;-79
2022/02/01 09:20:12;;;;;;;50.85;16.75;;;;;;;0.49;88.71;91916.56;5030853;28;20045;-79
2022/02/01 09:22:39;;;;;;;42.33;16.27;;;;;;;0.71;89.57;91941.84;5030772;28;20420;-79
2022/02/01 09:25:07;;;;;;;79.38;18.88;;;;;;;0.45;89.22;91912.81;5029462;28;20053;-79
2022/02/01 09:27:34;;;;;;;67.25;18.40;;;;;;;0.77;90.77;91941.91;5030765;28;20049;-79
2022/02/01 09:30:01;;;;;;;54.30;17.65;;;;;;;0.71;91.75;91939.31;5028760;28;20485;-79
2022/02/01 09:32:27;;;;;;;60.03;23.48;;;;;;;0.78;94.39;91932.56;5030496;28;20045;-79
2022/02/01 09:34:56;;;;;;;32.35;14.88;;;;;;;0.71;96.43;91936.78;5030285;28;20045;-80
2022/02/01 09:37:23;;;;;;;41.22;17.48;;;;;;;0.75;97.20;91927.88;5030396;28;20049;-79
2022/02/01 09:39:50;;;;;;;36.78;15.25;;;;;;;0.80;98.54;91926.34;5030575;28;20056;-80
2022/02/01 09:42:17;;;;;;;32.15;15.70;;;;;;;0.96;99.18;91922.00;5030012;28;20045;-79
2022/02/01 09:44:44;;;;;;;30.02;14.20;;;;;;;0.97;99.72;91910.16;5030202;28;20046;-79
2022/02/01 09:47:11;;;;;;;27.30;13.80;;;;;;;1.06;99.52;91917.41;5029930;28;20489;-79
2022/02/01 09:49:38;;;;;;;31.73;16.05;;;;;;;1.15;99.60;91919.81;5030193;28;20053;-80
2022/02/01 09:52:07;;;;;;;31.70;14.82;;;;;;;1.16;98.80;91922.16;5029934;28;20051;-79
2022/02/01 09:54:34;;;;;;;26.73;11.60;;;;;;;1.18;98.40;91919.44;5030141;28;20068;-79
2022/02/01 09:57:06;;;;;;;31.65;12.65;;;;;;;1.30;97.79;91924.78;5030222;28;20049;-80
2022/02/01 09:59:35;;;;;;;30.60;13.00;;;;;;;1.45;97.64;91912.03;5030100;28;20045;-80
2022/02/01 10:02:07;;;;;;;27.65;11.60;;;;;;;1.47;96.28;91907.56;5029785;28;20049;-80
2022/02/01 10:04:34;;;;;;;35.80;15.23;;;;;;;1.41;95.43;91878.72;5029736;28;20103;-80
2022/02/01 10:07:11;;;;;;;38.03;15.10;;;;;;;1.69;91.93;91913.31;5029596;28;20058;-79
2022/02/01 10:09:56;;;;;;;38.20;16.85;;;;;;;1.88;92.01;91906.00;5029703;28;20045;-79
2022/02/01 10:12:25;;;;;;;40.53;16.63;;;;;;;2.03;89.72;91898.25;5029746;28;20049;-79
2022/02/01 10:14:56;;;;;;;51.85;21.73;;;;;;;2.20;88.61;91898.72;5029588;28;20140;-79
2022/02/01 10:17:37;;;;;;;49.70;22.00;;;;;;;2.25;86.95;91901.44;5029615;28;20081;-79
2022/02/01 10:20:05;;;;;;;34.97;16.80;;;;;;;2.16;82.98;91901.81;5029720;28;20449;-80
2022/02/01 10:22:36;;;;;;;39.65;18.67;;;;;;;1.99;82.71;91876.84;5029548;28;20045;-79
2022/02/01 10:25:05;;;;;;;38.67;19.25;;;;;;;2.16;82.71;91910.19;5029345;28;20053;-80
2022/02/01 10:27:34;;;;;;;36.60;17.23;;;;;;;2.12;83.13;91906.47;5029382;28;20050;-80
2022/02/01 10:30:07;;;;;;;36.00;18.17;;;;;;;2.22;87.10;91911.19;5029908;28;20064;-80
2022/02/01 10:32:50;;;;;;;41.47;22.70;;;;;;;1.90;80.82;91908.34;5029578;28;20049;-80
2022/02/01 10:35:32;;;;;;;50.97;26.20;;;;;;;1.97;81.91;91919.28;5029234;28;20079;-80
2022/02/01 10:38:04;;;;;;;46.42;24.17;;;;;;;1.85;84.61;91906.38;5029218;28;20116;-80
2022/02/01 10:40:38;;;;;;;48.00;23.88;;;;;;;1.51;85.67;91898.63;5029193;28;20052;-80
2022/02/01 10:43:16;;;;;;;40.95;21.08;;;;;;;1.69;88.26;91915.84;5028943;28;20084;-80
2022/02/01 10:45:43;;;;;;;38.70;19.83;;;;;;;1.89;90.01;91911.84;5028853;28;20465;-81
2022/02/01 10:48:14;;;;;;;31.35;14.95;;;;;;;1.99;85.46;91913.06;5029140;28;20104;-81
2022/02/01 10:50:42;;;;;;;33.70;17.08;;;;;;;1.71;84.84;91849.84;5029072;28;20099;-81
2022/02/01 10:53:21;;;;;;;31.40;15.85;;;;;;;2.29;84.27;91921.31;5028972;28;20049;-81
2022/02/01 10:55:51;;;;;;;34.58;16.02;;;;;;;2.37;82.64;91918.63;5029223;28;20049;-81
2022/02/01 10:58:19;;;;;;;35.97;13.63;;;;;;;2.35;80.97;91921.34;5029049;28;20052;-81
2022/02/01 11:00:48;;;;;;;27.77;14.45;;;;;;;2.41;81.79;91912.22;5029019;28;20517;-81
2022/02/01 11:03:16;;;;;;;44.00;22.50;;;;;;;2.10;80.49;91865.34;5029281;28;20049;-81
2022/02/01 11:05:47;;;;;;;32.65;15.73;;;;;;;2.42;74.61;91913.78;5029880;28;20053;-81
2022/02/01 11:08:15;;;;;;;26.48;14.52;;;;;;;2.24;72.62;91924.44;5029568;28;20103;-81
2022/02/01 11:10:50;;;;;;;21.88;11.30;;;;;;;2.12;72.27;91912.31;5029233;28;20099;-80
2022/02/01 11:13:17;;;;;;;14.65;7.43;;;;;;;1.85;72.80;91909.69;5029018;28;20517;-80
2022/02/01 11:15:57;;;;;;;29.67;16.13;;;;;;;1.66;75.35;91906.09;5028768;28;20417;-80
2022/02/01 11:18:26;;;;;;;53.63;27.13;;;;;;;1.64;76.31;91909.78;5028748;28;20564;-80
2022/02/01 11:20:54;;;;;;;15.70;5.20;;;;;;;1.42;75.10;91912.38;5028856;28;20046;-80
2022/02/01 11:23:22;;;;;;;19.38;10.95;;;;;;;1.23;79.13;91860.69;5028902;28;20048;-80
2022/02/01 11:25:55;;;;;;;12.38;6.82;;;;;;;1.32;81.38;91900.88;5029149;28;20123;-80
2022/02/01 11:28:38;;;;;;;51.25;19.42;;;;;;;0.94;84.78;91911.31;5028826;28;20563;-80
2022/02/01 11:31:05;;;;;;;18.30;8.55;;;;;;;0.90;87.17;91910.09;5029070;28;20045;-80
2022/02/01 11:33:37;;;;;;;56.80;28.63;;;;;;;0.92;86.71;91893.78;5028794;28;20502;-81
2022/02/01 11:36:06;;;;;;;18.67;10.55;;;;;;;0.82;85.15;91890.03;5025958;28;20452;-80
2022/02/01 11:38:33;;;;;;;19.40;9.40;;;;;;;0.72;85.56;91897.91;5026296;28;20099;-80
2022/02/01 11:41:06;;;;;;;42.00;27.20;;;;;;;0.69;85.30;91893.22;5027945;28;20049;-80
2022/02/01 11:43:34;;;;;;;30.85;17.25;;;;;;;0.52;84.56;91863.16;5028147;28;20050;-80
2022/02/01 11:46:04;;;;;;;13.55;7.75;;;;;;;0.69;83.75;91909.16;5027959;28;20077;-79
2022/02/01 11:48:33;;;;;;;12.13;6.07;;;;;;;0.65;83.28;91918.84;5031245;28;20049;-81
2022/02/01 11:51:02;;;;;;;13.93;6.25;;;;;;;0.63;82.73;91899.78;5032236;28;20050;-80
2022/02/01 11:53:35;;;;;;;9.30;4.57;;;;;;;0.70;83.21;91912.47;5032253;28;20056;-80
2022/02/01 11:56:06;;;;;;;10.60;5.43;;;;;;;0.65;82.24;91918.06;5032567;28;20060;-80
2022/02/01 11:58:34;;;;;;;18.25;8.77;;;;;;;0.76;83.53;91916.78;5032366;28;20464;-80
2022/02/01 12:01:02;;;;;;;11.57;4.55;;;;;;;0.45;84.16;91867.34;5032094;28;20045;-80
2022/02/01 12:03:31;;;;;;;14.07;5.85;;;;;;;0.56;81.51;91896.41;5032248;28;20057;-80
2022/02/01 12:06:05;;;;;;;19.02;7.93;;;;;;;0.64;82.59;91919.00;5032287;28;20042;-80
2022/02/01 12:08:34;;;;;;;18.38;8.32;;;;;;;0.65;80.18;91913.03;5031902;28;20042;-80
2022/02/01 12:11:05;;;;;;;17.85;7.53;;;;;;;0.83;80.06;91922.69;5031871;28;20497;-80
2022/02/01 12:13:34;;;;;;;13.70;6.68;;;;;;;0.93;78.67;91929.97;5032074;28;20099;-78
2022/02/01 12:16:02;;;;;;;24.50;11.13;;;;;;;0.87;79.74;91923.88;5031848;28;20045;-78
2022/02/01 12:18:33;;;;;;;10.57;5.28;;;;;;;0.57;77.94;91908.06;5032067;28;20053;-78
2022/02/01 12:21:14;;;;;;;10.75;5.20;;;;;;;0.86;80.80;91934.97;5031770;28;20072;-77
2022/02/01 12:23:46;;;;;;;10.57;5.43;;;;;;;0.70;80.04;91953.69;5032075;28;20413;-78
2022/02/01 12:26:21;;;;;;;15.35;7.22;;;;;;;0.73;81.95;91963.44;5031647;28;20045;-80
2022/02/01 12:28:48;;;;;;;8.70;4.28;;;;;;;0.43;84.16;91919.81;5031425;28;20046;-79
2022/02/01 12:31:16;;;;;;;10.27;5.07;;;;;;;0.37;84.84;91939.78;5031924;28;20041;-79
2022/02/01 12:33:44;;;;;;;17.95;8.77;;;;;;;0.48;86.57;91968.84;5031877;28;20103;-79
2022/02/01 12:36:13;;;;;;;10.43;6.22;;;;;;;0.38;87.45;91971.63;5031850;28;20497;-78
2022/02/01 12:38:40;;;;;;;10.57;5.55;;;;;;;0.45;88.40;91986.88;5031393;28;20046;-79
2022/02/01 12:41:16;;;;;;;22.92;14.68;;;;;;;0.20;89.21;91966.19;5031386;28;20133;-79
2022/02/01 12:46:46;;;;;;;11.95;5.45;;;;;;;-0.09;91.21;91957.72;5031111;28;20476;-79
2022/02/01 12:49:13;;;;;;;14.13;6.82;;;;;;;0.04;92.74;91997.50;5031179;28;20395;-79
2022/02/01 12:51:41;;;;;;;10.52;5.30;;;;;;;-0.34;94.31;91991.56;5030537;28;20045;-79